Anzahl Datensätze: 288
min. Temperatur: 10.7 °C
max. Temperatur: 29.2 °C
max. Windgeschwindigkeit: 32.0 km/h
Niederschlagsumme: 19.8 mm
| Datum |
Zeit |
Temp °C |
Feuchte % |
Taupunkt °C |
Luftdruck hPa |
Wind km/h |
Windrichtung |
Strahlung w/m² |
Niederschlag mm |
|---|---|---|---|---|---|---|---|---|---|
| 29.06.2024 | 00:03 | 12.9 | 85 | 10.4 | 1017.9 | 0.0 | N | 0 | 0.0 |
| 29.06.2024 | 00:09 | 12.9 | 85 | 10.4 | 1017.8 | 0.0 | N | 0 | 0.0 |
| 29.06.2024 | 00:12 | 12.9 | 85 | 10.4 | 1017.7 | 0.0 | N | 0 | 0.0 |
| 29.06.2024 | 00:18 | 12.7 | 85 | 10.2 | 1017.8 | 0.0 | N | 0 | 0.0 |
| 29.06.2024 | 00:24 | 12.6 | 85 | 10.1 | 1017.8 | 0.0 | N | 0 | 0.0 |
| 29.06.2024 | 00:27 | 12.6 | 85 | 10.1 | 1017.8 | 0.0 | N | 0 | 0.0 |
| 29.06.2024 | 00:33 | 12.4 | 85 | 9.9 | 1017.7 | 0.0 | N | 0 | 0.0 |
| 29.06.2024 | 00:39 | 12.4 | 85 | 9.9 | 1017.7 | 0.0 | N | 0 | 0.0 |
| 29.06.2024 | 00:42 | 12.4 | 86 | 10.1 | 1017.7 | 0.0 | N | 0 | 0.0 |
| 29.06.2024 | 00:48 | 12.3 | 85 | 9.9 | 1017.6 | 1.4 | N | 0 | 0.0 |
| 29.06.2024 | 00:54 | 12.2 | 86 | 9.9 | 1017.5 | 0.0 | ONO | 0 | 0.0 |
| 29.06.2024 | 00:57 | 12.2 | 86 | 9.9 | 1017.6 | 0.0 | O | 0 | 0.0 |
| 29.06.2024 | 01:03 | 12.1 | 86 | 9.8 | 1017.6 | 1.4 | O | 0 | 0.0 |
| 29.06.2024 | 01:09 | 11.9 | 86 | 9.6 | 1017.5 | 0.0 | ONO | 0 | 0.0 |
| 29.06.2024 | 01:12 | 11.9 | 86 | 9.6 | 1017.5 | 0.0 | ONO | 0 | 0.0 |
| 29.06.2024 | 01:18 | 11.8 | 86 | 9.5 | 1017.6 | 0.0 | ONO | 0 | 0.0 |
| 29.06.2024 | 01:24 | 11.7 | 86 | 9.4 | 1017.5 | 1.4 | ONO | 0 | 0.0 |
| 29.06.2024 | 01:27 | 11.7 | 86 | 9.4 | 1017.5 | 1.4 | NO | 0 | 0.0 |
| 29.06.2024 | 01:33 | 11.7 | 87 | 9.6 | 1017.4 | 1.4 | NNO | 0 | 0.0 |
| 29.06.2024 | 01:39 | 11.6 | 87 | 9.5 | 1017.3 | 0.0 | NO | 0 | 0.0 |
| 29.06.2024 | 01:42 | 11.6 | 87 | 9.5 | 1017.3 | 0.0 | NO | 0 | 0.0 |
| 29.06.2024 | 01:48 | 11.6 | 87 | 9.5 | 1017.4 | 0.0 | NO | 0 | 0.0 |
| 29.06.2024 | 01:54 | 11.6 | 87 | 9.5 | 1017.4 | 0.0 | NO | 0 | 0.0 |
| 29.06.2024 | 01:57 | 11.5 | 87 | 9.4 | 1017.3 | 0.0 | NO | 0 | 0.0 |
| 29.06.2024 | 02:03 | 11.5 | 87 | 9.4 | 1017.2 | 0.0 | NNO | 0 | 0.0 |
| 29.06.2024 | 02:09 | 11.4 | 87 | 9.3 | 1017.4 | 0.0 | ONO | 0 | 0.0 |
| 29.06.2024 | 02:12 | 11.4 | 87 | 9.3 | 1017.3 | 0.0 | ONO | 0 | 0.0 |
| 29.06.2024 | 02:18 | 11.3 | 87 | 9.2 | 1017.3 | 0.0 | ONO | 0 | 0.0 |
| 29.06.2024 | 02:24 | 11.3 | 87 | 9.2 | 1017.2 | 0.0 | NO | 0 | 0.0 |
| 29.06.2024 | 02:27 | 11.3 | 87 | 9.2 | 1017.2 | 0.0 | NNO | 0 | 0.0 |
| 29.06.2024 | 02:33 | 11.2 | 87 | 9.1 | 1017.2 | 0.0 | NNO | 0 | 0.0 |
| 29.06.2024 | 02:39 | 11.3 | 88 | 9.4 | 1017.2 | 0.0 | NNO | 0 | 0.0 |
| 29.06.2024 | 02:42 | 11.2 | 88 | 9.3 | 1017.2 | 0.0 | W | 0 | 0.0 |
| 29.06.2024 | 02:48 | 11.2 | 88 | 9.3 | 1017.1 | 0.0 | W | 0 | 0.0 |
| 29.06.2024 | 02:54 | 11.2 | 88 | 9.3 | 1017.3 | 0.0 | W | 0 | 0.0 |
| 29.06.2024 | 02:57 | 11.2 | 88 | 9.3 | 1017.2 | 0.0 | NW | 0 | 0.0 |
| 29.06.2024 | 03:03 | 11.2 | 88 | 9.3 | 1017.2 | 0.0 | NNW | 0 | 0.0 |
| 29.06.2024 | 03:09 | 11.2 | 88 | 9.3 | 1017.2 | 0.0 | NNW | 0 | 0.0 |
| 29.06.2024 | 03:12 | 11.2 | 88 | 9.3 | 1017.2 | 0.0 | NNW | 0 | 0.0 |
| 29.06.2024 | 03:18 | 11.2 | 88 | 9.3 | 1017.1 | 1.4 | NNW | 0 | 0.0 |
| 29.06.2024 | 03:24 | 11.2 | 88 | 9.3 | 1017.2 | 1.4 | NNW | 0 | 0.0 |
| 29.06.2024 | 03:27 | 11.2 | 88 | 9.3 | 1017.1 | 1.4 | NNW | 0 | 0.0 |
| 29.06.2024 | 03:33 | 11.2 | 88 | 9.3 | 1017.1 | 1.4 | N | 0 | 0.0 |
| 29.06.2024 | 03:39 | 11.2 | 88 | 9.3 | 1017.1 | 0.0 | N | 0 | 0.0 |
| 29.06.2024 | 03:42 | 11.2 | 88 | 9.3 | 1017.1 | 0.0 | N | 0 | 0.0 |
| 29.06.2024 | 03:48 | 11.2 | 88 | 9.3 | 1017.0 | 0.0 | N | 0 | 0.0 |
| 29.06.2024 | 03:54 | 11.2 | 88 | 9.3 | 1016.9 | 0.0 | N | 0 | 0.0 |
| 29.06.2024 | 03:57 | 11.2 | 88 | 9.3 | 1016.9 | 0.0 | N | 0 | 0.0 |
| 29.06.2024 | 04:03 | 11.1 | 88 | 9.2 | 1016.7 | 0.0 | N | 0 | 0.0 |
| 29.06.2024 | 04:09 | 11.1 | 88 | 9.2 | 1016.7 | 1.4 | N | 0 | 0.0 |
| 29.06.2024 | 04:12 | 11.1 | 88 | 9.2 | 1016.6 | 1.4 | O | 0 | 0.0 |
| 29.06.2024 | 04:18 | 11.1 | 88 | 9.2 | 1016.6 | 1.4 | NO | 0 | 0.0 |
| 29.06.2024 | 04:24 | 11.0 | 88 | 9.1 | 1016.6 | 1.4 | OSO | 0 | 0.0 |
| 29.06.2024 | 04:27 | 11.0 | 88 | 9.1 | 1016.6 | 0.0 | O | 0 | 0.0 |
| 29.06.2024 | 04:33 | 10.9 | 88 | 9.0 | 1016.6 | 1.4 | NNO | 0 | 0.0 |
| 29.06.2024 | 04:39 | 10.9 | 88 | 9.0 | 1016.7 | 1.4 | N | 0 | 0.0 |
| 29.06.2024 | 04:42 | 10.9 | 88 | 9.0 | 1016.6 | 0.0 | NNO | 0 | 0.0 |
| 29.06.2024 | 04:48 | 10.9 | 88 | 9.0 | 1016.6 | 1.4 | NNO | 0 | 0.0 |
| 29.06.2024 | 04:54 | 10.9 | 88 | 9.0 | 1016.6 | 0.0 | NNO | 0 | 0.0 |
| 29.06.2024 | 04:57 | 10.9 | 88 | 9.0 | 1016.6 | 0.0 | NNO | 0 | 0.0 |
| 29.06.2024 | 05:03 | 10.9 | 88 | 9.0 | 1016.6 | 0.0 | NNO | 0 | 0.0 |
| 29.06.2024 | 05:09 | 10.9 | 88 | 9.0 | 1016.6 | 0.0 | NNO | 0 | 0.0 |
| 29.06.2024 | 05:12 | 10.9 | 88 | 9.0 | 1016.6 | 0.0 | NNO | 0 | 0.0 |
| 29.06.2024 | 05:18 | 10.9 | 88 | 9.0 | 1016.6 | 0.0 | NNO | 0 | 0.0 |
| 29.06.2024 | 05:24 | 10.9 | 88 | 9.0 | 1016.7 | 0.0 | NNO | 0 | 0.0 |
| 29.06.2024 | 05:27 | 10.9 | 88 | 9.0 | 1016.6 | 0.0 | NNO | 0 | 0.0 |
| 29.06.2024 | 05:33 | 10.8 | 88 | 8.9 | 1016.5 | 0.0 | NNO | 0 | 0.0 |
| 29.06.2024 | 05:39 | 10.8 | 88 | 8.9 | 1016.6 | 0.0 | NNO | 0 | 0.0 |
| 29.06.2024 | 05:42 | 10.8 | 88 | 8.9 | 1016.6 | 0.0 | NNO | 5 | 0.0 |
| 29.06.2024 | 05:48 | 10.8 | 88 | 8.9 | 1016.5 | 0.0 | NNO | 7 | 0.0 |
| 29.06.2024 | 05:54 | 10.8 | 88 | 8.9 | 1016.4 | 0.0 | O | 9 | 0.0 |
| 29.06.2024 | 05:57 | 10.8 | 88 | 8.9 | 1016.5 | 0.0 | O | 11 | 0.0 |
| 29.06.2024 | 06:03 | 10.7 | 88 | 8.8 | 1016.5 | 0.0 | NNO | 11 | 0.0 |
| 29.06.2024 | 06:09 | 10.8 | 88 | 8.9 | 1016.3 | 0.0 | NNO | 14 | 0.0 |
| 29.06.2024 | 06:12 | 10.8 | 88 | 8.9 | 1016.4 | 0.0 | SO | 18 | 0.0 |
| 29.06.2024 | 06:18 | 10.7 | 88 | 8.8 | 1016.2 | 1.4 | NNO | 21 | 0.0 |
| 29.06.2024 | 06:24 | 10.8 | 89 | 9.1 | 1016.2 | 1.4 | SSW | 25 | 0.0 |
| 29.06.2024 | 06:27 | 10.8 | 89 | 9.1 | 1016.1 | 0.0 | N | 25 | 0.0 |
| 29.06.2024 | 06:33 | 10.8 | 89 | 9.1 | 1016.1 | 0.0 | N | 26 | 0.0 |
| 29.06.2024 | 06:39 | 10.9 | 89 | 9.2 | 1016.2 | 1.4 | ONO | 28 | 0.0 |
| 29.06.2024 | 06:42 | 10.9 | 89 | 9.2 | 1016.1 | 1.4 | ONO | 28 | 0.0 |
| 29.06.2024 | 06:48 | 11.0 | 89 | 9.3 | 1016.2 | 0.0 | ONO | 32 | 0.0 |
| 29.06.2024 | 06:54 | 11.1 | 89 | 9.4 | 1016.1 | 1.4 | NNO | 33 | 0.0 |
| 29.06.2024 | 06:57 | 11.1 | 89 | 9.4 | 1016.1 | 1.4 | NNO | 35 | 0.0 |
| 29.06.2024 | 07:03 | 11.2 | 89 | 9.5 | 1016.0 | 0.0 | NNO | 35 | 0.0 |
| 29.06.2024 | 07:09 | 11.3 | 89 | 9.6 | 1015.9 | 0.0 | O | 37 | 0.0 |
| 29.06.2024 | 07:12 | 11.3 | 89 | 9.6 | 1015.8 | 0.0 | O | 37 | 0.0 |
| 29.06.2024 | 07:18 | 11.4 | 89 | 9.7 | 1015.8 | 0.0 | O | 40 | 0.0 |
| 29.06.2024 | 07:24 | 11.6 | 89 | 9.8 | 1015.7 | 0.0 | SO | 42 | 0.0 |
| 29.06.2024 | 07:27 | 11.6 | 88 | 9.7 | 1015.7 | 0.0 | SO | 44 | 0.0 |
| 29.06.2024 | 07:33 | 11.8 | 89 | 10.0 | 1015.7 | 1.4 | SO | 46 | 0.0 |
| 29.06.2024 | 07:39 | 11.9 | 88 | 10.0 | 1015.7 | 0.0 | SO | 49 | 0.0 |
| 29.06.2024 | 07:42 | 12.0 | 88 | 10.1 | 1015.7 | 1.4 | SO | 51 | 0.0 |
| 29.06.2024 | 07:48 | 12.2 | 88 | 10.3 | 1015.6 | 0.0 | O | 54 | 0.0 |
| 29.06.2024 | 07:54 | 12.4 | 88 | 10.5 | 1015.5 | 0.0 | O | 69 | 0.0 |
| 29.06.2024 | 07:57 | 12.6 | 88 | 10.7 | 1015.5 | 0.0 | O | 86 | 0.0 |
| 29.06.2024 | 08:03 | 12.8 | 88 | 10.9 | 1015.5 | 1.4 | SO | 127 | 0.0 |
| 29.06.2024 | 08:09 | 13.2 | 88 | 11.3 | 1015.5 | 1.4 | SO | 130 | 0.0 |
| 29.06.2024 | 08:12 | 13.3 | 88 | 11.4 | 1015.4 | 1.4 | SO | 130 | 0.0 |
| 29.06.2024 | 08:18 | 13.7 | 87 | 11.6 | 1015.4 | 0.0 | SO | 139 | 0.0 |
| 29.06.2024 | 08:24 | 14.1 | 87 | 12.0 | 1015.2 | 0.0 | SO | 167 | 0.0 |
| 29.06.2024 | 08:27 | 14.2 | 86 | 11.9 | 1015.1 | 0.0 | SO | 188 | 0.0 |
| 29.06.2024 | 08:33 | 14.7 | 86 | 12.4 | 1015.1 | 0.0 | N | 190 | 0.0 |
| 29.06.2024 | 08:39 | 15.1 | 85 | 12.6 | 1015.2 | 1.4 | N | 199 | 0.0 |
| 29.06.2024 | 08:42 | 15.2 | 84 | 12.5 | 1015.2 | 1.4 | N | 200 | 0.0 |
| 29.06.2024 | 08:48 | 15.7 | 83 | 12.8 | 1015.2 | 1.4 | NO | 209 | 0.0 |
| 29.06.2024 | 08:54 | 16.1 | 82 | 13.0 | 1015.1 | 0.0 | O | 236 | 0.0 |
| 29.06.2024 | 08:57 | 16.3 | 82 | 13.2 | 1015.1 | 0.0 | O | 362 | 0.0 |
| 29.06.2024 | 09:03 | 16.7 | 80 | 13.2 | 1015.1 | 0.0 | N | 241 | 0.0 |
| 29.06.2024 | 09:09 | 17.1 | 78 | 13.2 | 1015.0 | 1.4 | SO | 339 | 0.0 |
| 29.06.2024 | 09:12 | 17.3 | 77 | 13.2 | 1015.0 | 1.4 | N | 438 | 0.0 |
| 29.06.2024 | 09:18 | 17.6 | 75 | 13.1 | 1015.0 | 1.4 | NNO | 304 | 0.0 |
| 29.06.2024 | 09:24 | 17.9 | 75 | 13.4 | 1014.8 | 1.4 | NNW | 443 | 0.0 |
| 29.06.2024 | 09:27 | 18.2 | 75 | 13.7 | 1014.8 | 1.4 | N | 457 | 0.0 |
| 29.06.2024 | 09:33 | 18.7 | 74 | 14.0 | 1014.8 | 1.4 | SSO | 468 | 0.0 |
| 29.06.2024 | 09:39 | 19.1 | 73 | 14.1 | 1014.8 | 1.4 | SSO | 487 | 0.0 |
| 29.06.2024 | 09:42 | 19.3 | 72 | 14.1 | 1014.8 | 1.4 | NNO | 424 | 0.0 |
| 29.06.2024 | 09:48 | 19.7 | 72 | 14.5 | 1014.7 | 0.0 | NNW | 483 | 0.0 |
| 29.06.2024 | 09:54 | 19.9 | 71 | 14.5 | 1014.6 | 1.4 | SSO | 504 | 0.0 |
| 29.06.2024 | 09:57 | 20.1 | 71 | 14.7 | 1014.6 | 0.0 | N | 504 | 0.0 |
| 29.06.2024 | 10:03 | 20.4 | 69 | 14.5 | 1014.5 | 0.0 | NNW | 512 | 0.0 |
| 29.06.2024 | 10:09 | 20.7 | 68 | 14.6 | 1014.4 | 0.0 | NNO | 531 | 0.0 |
| 29.06.2024 | 10:12 | 20.8 | 67 | 14.4 | 1014.4 | 1.4 | N | 550 | 0.0 |
| 29.06.2024 | 10:18 | 20.9 | 65 | 14.1 | 1014.2 | 3.2 | NNO | 526 | 0.0 |
| 29.06.2024 | 10:24 | 20.9 | 65 | 14.1 | 1014.2 | 4.7 | NNO | 487 | 0.0 |
| 29.06.2024 | 10:27 | 21.1 | 65 | 14.3 | 1014.1 | 3.2 | NNO | 408 | 0.0 |
| 29.06.2024 | 10:33 | 21.3 | 65 | 14.5 | 1014.0 | 3.2 | N | 388 | 0.0 |
| 29.06.2024 | 10:39 | 21.5 | 64 | 14.4 | 1014.1 | 1.4 | NNO | 475 | 0.0 |
| 29.06.2024 | 10:42 | 21.7 | 65 | 14.8 | 1014.1 | 1.4 | N | 580 | 0.0 |
| 29.06.2024 | 10:48 | 21.8 | 63 | 14.4 | 1014.1 | 1.4 | NNW | 615 | 0.0 |
| 29.06.2024 | 10:54 | 22.2 | 63 | 14.8 | 1013.9 | 1.4 | NNO | 594 | 0.0 |
| 29.06.2024 | 10:57 | 22.4 | 63 | 15.0 | 1013.9 | 1.4 | N | 578 | 0.0 |
| 29.06.2024 | 11:03 | 22.4 | 59 | 14.0 | 1013.7 | 3.2 | NNW | 508 | 0.0 |
| 29.06.2024 | 11:09 | 22.6 | 62 | 14.9 | 1013.8 | 3.2 | NW | 557 | 0.0 |
| 29.06.2024 | 11:12 | 22.7 | 61 | 14.8 | 1013.7 | 1.4 | NNO | 531 | 0.0 |
| 29.06.2024 | 11:18 | 22.7 | 60 | 14.5 | 1013.5 | 1.4 | N | 571 | 0.0 |
| 29.06.2024 | 11:24 | 22.8 | 59 | 14.4 | 1013.6 | 3.2 | NNO | 591 | 0.0 |
| 29.06.2024 | 11:27 | 22.9 | 58 | 14.2 | 1013.5 | 4.7 | N | 608 | 0.0 |
| 29.06.2024 | 11:33 | 22.9 | 58 | 14.2 | 1013.5 | 3.2 | N | 566 | 0.0 |
| 29.06.2024 | 11:39 | 23.1 | 57 | 14.1 | 1013.3 | 3.2 | N | 621 | 0.0 |
| 29.06.2024 | 11:42 | 23.2 | 55 | 13.7 | 1013.3 | 4.7 | NNO | 589 | 0.0 |
| 29.06.2024 | 11:48 | 23.3 | 54 | 13.5 | 1013.4 | 4.7 | N | 570 | 0.0 |
| 29.06.2024 | 11:54 | 23.5 | 52 | 13.1 | 1013.3 | 4.7 | N | 671 | 0.0 |
| 29.06.2024 | 11:57 | 23.6 | 53 | 13.5 | 1013.3 | 4.7 | NNW | 649 | 0.0 |
| 29.06.2024 | 12:03 | 23.7 | 52 | 13.3 | 1013.2 | 4.7 | N | 675 | 0.0 |
| 29.06.2024 | 12:09 | 23.7 | 52 | 13.3 | 1013.0 | 4.7 | N | 608 | 0.0 |
| 29.06.2024 | 12:12 | 23.9 | 53 | 13.7 | 1013.0 | 4.7 | N | 598 | 0.0 |
| 29.06.2024 | 12:18 | 24.1 | 54 | 14.2 | 1012.9 | 3.2 | NNO | 621 | 0.0 |
| 29.06.2024 | 12:24 | 24.3 | 54 | 14.4 | 1012.8 | 3.2 | NNW | 601 | 0.0 |
| 29.06.2024 | 12:27 | 24.4 | 53 | 14.2 | 1012.8 | 3.2 | NNO | 615 | 0.0 |
| 29.06.2024 | 12:33 | 24.5 | 53 | 14.3 | 1012.7 | 3.2 | NNW | 622 | 0.0 |
| 29.06.2024 | 12:39 | 24.6 | 53 | 14.4 | 1012.7 | 4.7 | N | 666 | 0.0 |
| 29.06.2024 | 12:42 | 24.8 | 54 | 14.9 | 1012.7 | 4.7 | S | 691 | 0.0 |
| 29.06.2024 | 12:48 | 24.9 | 52 | 14.4 | 1012.6 | 4.7 | N | 664 | 0.0 |
| 29.06.2024 | 12:54 | 24.8 | 54 | 14.9 | 1012.5 | 4.7 | NNO | 735 | 0.0 |
| 29.06.2024 | 12:57 | 24.9 | 56 | 15.5 | 1012.5 | 4.7 | N | 738 | 0.0 |
| 29.06.2024 | 13:03 | 24.9 | 56 | 15.5 | 1012.4 | 3.2 | NNO | 737 | 0.0 |
| 29.06.2024 | 13:09 | 25.2 | 57 | 16.1 | 1012.3 | 4.7 | NNO | 754 | 0.0 |
| 29.06.2024 | 13:12 | 25.3 | 56 | 15.9 | 1012.2 | 4.7 | N | 744 | 0.0 |
| 29.06.2024 | 13:18 | 25.5 | 57 | 16.4 | 1012.1 | 4.7 | NNO | 715 | 0.0 |
| 29.06.2024 | 13:24 | 25.7 | 56 | 16.3 | 1012.1 | 4.7 | N | 728 | 0.0 |
| 29.06.2024 | 13:27 | 25.8 | 56 | 16.4 | 1012.0 | 4.7 | NW | 733 | 0.0 |
| 29.06.2024 | 13:33 | 26.1 | 55 | 16.4 | 1012.0 | 3.2 | NNW | 719 | 0.0 |
| 29.06.2024 | 13:39 | 26.0 | 56 | 16.5 | 1011.8 | 4.7 | NNO | 457 | 0.0 |
| 29.06.2024 | 13:42 | 26.1 | 55 | 16.4 | 1011.8 | 6.5 | N | 803 | 0.0 |
| 29.06.2024 | 13:48 | 26.0 | 55 | 16.3 | 1011.8 | 7.9 | NNW | 733 | 0.0 |
| 29.06.2024 | 13:54 | 26.2 | 56 | 16.7 | 1011.6 | 6.5 | NO | 749 | 0.0 |
| 29.06.2024 | 13:57 | 26.2 | 56 | 16.7 | 1011.6 | 6.5 | NNW | 742 | 0.0 |
| 29.06.2024 | 14:03 | 26.3 | 56 | 16.8 | 1011.4 | 7.9 | ONO | 731 | 0.0 |
| 29.06.2024 | 14:09 | 26.6 | 57 | 17.4 | 1011.4 | 6.5 | WSW | 737 | 0.0 |
| 29.06.2024 | 14:12 | 26.8 | 55 | 17.0 | 1011.4 | 4.7 | SW | 740 | 0.0 |
| 29.06.2024 | 14:18 | 27.0 | 55 | 17.2 | 1011.3 | 4.7 | NNO | 747 | 0.0 |
| 29.06.2024 | 14:24 | 26.8 | 55 | 17.0 | 1011.2 | 7.9 | NNO | 729 | 0.0 |
| 29.06.2024 | 14:27 | 26.7 | 56 | 17.2 | 1011.1 | 9.7 | NNO | 728 | 0.0 |
| 29.06.2024 | 14:33 | 26.8 | 56 | 17.3 | 1011.1 | 6.5 | NNO | 724 | 0.0 |
| 29.06.2024 | 14:39 | 27.5 | 56 | 17.9 | 1010.8 | 4.7 | NNW | 719 | 0.0 |
| 29.06.2024 | 14:42 | 27.7 | 55 | 17.8 | 1010.7 | 3.2 | O | 715 | 0.0 |
| 29.06.2024 | 14:48 | 28.0 | 54 | 17.8 | 1010.5 | 4.7 | N | 712 | 0.0 |
| 29.06.2024 | 14:54 | 28.1 | 54 | 17.9 | 1010.4 | 6.5 | NNO | 703 | 0.0 |
| 29.06.2024 | 14:57 | 28.1 | 55 | 18.2 | 1010.3 | 4.7 | S | 694 | 0.0 |
| 29.06.2024 | 15:03 | 28.2 | 55 | 18.3 | 1010.2 | 4.7 | SO | 679 | 0.0 |
| 29.06.2024 | 15:09 | 28.5 | 55 | 18.6 | 1010.2 | 4.7 | N | 687 | 0.0 |
| 29.06.2024 | 15:12 | 28.6 | 54 | 18.4 | 1010.2 | 4.7 | SSW | 694 | 0.0 |
| 29.06.2024 | 15:18 | 28.9 | 54 | 18.7 | 1010.2 | 3.2 | NNO | 425 | 0.0 |
| 29.06.2024 | 15:24 | 28.4 | 56 | 18.8 | 1010.2 | 4.7 | N | 295 | 0.0 |
| 29.06.2024 | 15:27 | 28.2 | 57 | 18.9 | 1010.1 | 4.7 | NNO | 387 | 0.0 |
| 29.06.2024 | 15:33 | 27.9 | 57 | 18.6 | 1009.9 | 6.5 | N | 371 | 0.0 |
| 29.06.2024 | 15:39 | 27.4 | 58 | 18.4 | 1009.9 | 7.9 | ONO | 290 | 0.0 |
| 29.06.2024 | 15:42 | 27.3 | 59 | 18.6 | 1009.9 | 6.5 | N | 330 | 0.0 |
| 29.06.2024 | 15:48 | 27.4 | 60 | 18.9 | 1009.9 | 6.5 | NNO | 287 | 0.0 |
| 29.06.2024 | 15:54 | 27.4 | 60 | 18.9 | 1009.8 | 4.7 | NNO | 448 | 0.0 |
| 29.06.2024 | 15:57 | 27.4 | 60 | 18.9 | 1009.7 | 4.7 | N | 443 | 0.0 |
| 29.06.2024 | 16:03 | 27.7 | 60 | 19.2 | 1009.7 | 4.7 | NW | 506 | 0.0 |
| 29.06.2024 | 16:09 | 28.0 | 60 | 19.5 | 1009.4 | 4.7 | O | 570 | 0.0 |
| 29.06.2024 | 16:12 | 27.8 | 59 | 19.1 | 1009.5 | 4.7 | WNW | 575 | 0.0 |
| 29.06.2024 | 16:18 | 27.9 | 60 | 19.4 | 1009.3 | 6.5 | N | 529 | 0.0 |
| 29.06.2024 | 16:24 | 28.5 | 59 | 19.7 | 1009.2 | 3.2 | OSO | 563 | 0.0 |
| 29.06.2024 | 16:27 | 28.8 | 59 | 20.0 | 1009.2 | 3.2 | NW | 506 | 0.0 |
| 29.06.2024 | 16:33 | 29.2 | 57 | 19.8 | 1009.3 | 1.4 | N | 345 | 0.0 |
| 29.06.2024 | 16:39 | 28.8 | 58 | 19.7 | 1009.1 | 3.2 | NO | 336 | 0.0 |
| 29.06.2024 | 16:42 | 28.8 | 59 | 20.0 | 1009.2 | 3.2 | NO | 432 | 0.0 |
| 29.06.2024 | 16:48 | 28.9 | 58 | 19.8 | 1009.0 | 1.4 | S | 561 | 0.0 |
| 29.06.2024 | 16:54 | 29.1 | 58 | 20.0 | 1008.9 | 1.4 | S | 411 | 0.0 |
| 29.06.2024 | 16:57 | 29.1 | 58 | 20.0 | 1008.8 | 1.4 | W | 473 | 0.0 |
| 29.06.2024 | 17:03 | 29.2 | 58 | 20.1 | 1008.7 | 3.2 | SSW | 264 | 0.0 |
| 29.06.2024 | 17:09 | 29.1 | 59 | 20.3 | 1008.7 | 3.2 | SSW | 236 | 0.0 |
| 29.06.2024 | 17:12 | 28.9 | 58 | 19.8 | 1008.7 | 3.2 | W | 234 | 0.0 |
| 29.06.2024 | 17:18 | 28.7 | 60 | 20.2 | 1008.7 | 3.2 | NNO | 209 | 0.0 |
| 29.06.2024 | 17:24 | 28.3 | 61 | 20.1 | 1008.5 | 4.7 | NNO | 197 | 0.0 |
| 29.06.2024 | 17:27 | 28.2 | 62 | 20.2 | 1008.5 | 4.7 | NNO | 279 | 0.0 |
| 29.06.2024 | 17:33 | 28.1 | 65 | 20.9 | 1008.3 | 4.7 | NNW | 281 | 0.0 |
| 29.06.2024 | 17:39 | 28.2 | 65 | 21.0 | 1008.3 | 3.2 | NNW | 250 | 0.0 |
| 29.06.2024 | 17:42 | 28.3 | 65 | 21.1 | 1008.2 | 3.2 | NW | 232 | 0.0 |
| 29.06.2024 | 17:48 | 28.3 | 65 | 21.1 | 1008.1 | 1.4 | NW | 221 | 0.0 |
| 29.06.2024 | 17:54 | 28.2 | 65 | 21.0 | 1008.0 | 1.4 | N | 313 | 0.0 |
| 29.06.2024 | 17:57 | 28.2 | 65 | 21.0 | 1008.0 | 3.2 | NW | 364 | 0.0 |
| 29.06.2024 | 18:03 | 28.2 | 66 | 21.2 | 1007.9 | 3.2 | NNO | 360 | 0.0 |
| 29.06.2024 | 18:09 | 28.3 | 64 | 20.8 | 1007.8 | 3.2 | NNW | 195 | 0.0 |
| 29.06.2024 | 18:12 | 28.3 | 65 | 21.1 | 1007.7 | 3.2 | NNW | 163 | 0.0 |
| 29.06.2024 | 18:18 | 28.2 | 65 | 21.0 | 1007.6 | 3.2 | N | 125 | 0.0 |
| 29.06.2024 | 18:24 | 28.1 | 67 | 21.4 | 1007.5 | 3.2 | N | 70 | 0.0 |
| 29.06.2024 | 18:27 | 27.8 | 68 | 21.3 | 1007.5 | 3.2 | NNW | 58 | 0.0 |
| 29.06.2024 | 18:33 | 27.4 | 69 | 21.2 | 1007.5 | 1.4 | N | 63 | 0.0 |
| 29.06.2024 | 18:39 | 27.1 | 72 | 21.6 | 1007.5 | 1.4 | WNW | 84 | 0.0 |
| 29.06.2024 | 18:42 | 26.9 | 73 | 21.6 | 1007.2 | 1.4 | N | 98 | 0.0 |
| 29.06.2024 | 18:48 | 26.5 | 75 | 21.7 | 1007.1 | 1.4 | N | 95 | 0.0 |
| 29.06.2024 | 18:54 | 26.3 | 76 | 21.7 | 1007.1 | 1.4 | N | 79 | 0.0 |
| 29.06.2024 | 18:57 | 26.2 | 76 | 21.6 | 1007.1 | 1.4 | NNO | 79 | 0.0 |
| 29.06.2024 | 19:03 | 26.1 | 77 | 21.7 | 1007.0 | 1.4 | N | 70 | 0.0 |
| 29.06.2024 | 19:09 | 25.9 | 78 | 21.8 | 1006.9 | 1.4 | N | 95 | 0.0 |
| 29.06.2024 | 19:12 | 25.8 | 78 | 21.7 | 1006.7 | 1.4 | N | 107 | 0.0 |
| 29.06.2024 | 19:18 | 25.6 | 79 | 21.7 | 1006.4 | 3.2 | N | 120 | 0.0 |
| 29.06.2024 | 19:24 | 25.3 | 79 | 21.4 | 1006.2 | 3.2 | NNW | 125 | 0.0 |
| 29.06.2024 | 19:27 | 25.3 | 80 | 21.6 | 1006.3 | 3.2 | N | 128 | 0.0 |
| 29.06.2024 | 19:33 | 25.3 | 80 | 21.6 | 1006.1 | 3.2 | NNW | 128 | 0.0 |
| 29.06.2024 | 19:39 | 25.3 | 80 | 21.6 | 1006.2 | 3.2 | N | 63 | 0.0 |
| 29.06.2024 | 19:42 | 25.3 | 79 | 21.4 | 1006.2 | 3.2 | N | 58 | 0.0 |
| 29.06.2024 | 19:48 | 25.3 | 79 | 21.4 | 1006.1 | 3.2 | N | 51 | 0.0 |
| 29.06.2024 | 19:54 | 25.3 | 79 | 21.4 | 1006.2 | 1.4 | N | 26 | 0.0 |
| 29.06.2024 | 19:57 | 25.3 | 80 | 21.6 | 1006.1 | 1.4 | N | 19 | 0.0 |
| 29.06.2024 | 20:03 | 25.1 | 80 | 21.4 | 1006.1 | 1.4 | NNO | 11 | 0.0 |
| 29.06.2024 | 20:09 | 24.9 | 81 | 21.4 | 1006.2 | 1.4 | NNO | 7 | 0.0 |
| 29.06.2024 | 20:12 | 24.9 | 81 | 21.4 | 1006.2 | 1.4 | NNO | 5 | 0.0 |
| 29.06.2024 | 20:18 | 24.8 | 82 | 21.5 | 1006.2 | 0.0 | NO | 0 | 0.0 |
| 29.06.2024 | 20:24 | 24.6 | 82 | 21.3 | 1006.1 | 0.0 | NNO | 0 | 0.0 |
| 29.06.2024 | 20:27 | 24.4 | 82 | 21.1 | 1005.9 | 1.4 | N | 0 | 0.0 |
| 29.06.2024 | 20:33 | 24.2 | 83 | 21.1 | 1005.7 | 1.4 | NNO | 0 | 0.0 |
| 29.06.2024 | 20:39 | 23.8 | 84 | 20.9 | 1005.7 | 1.4 | NNO | 0 | 0.0 |
| 29.06.2024 | 20:42 | 23.7 | 84 | 20.8 | 1005.6 | 3.2 | NNW | 0 | 0.2 |
| 29.06.2024 | 20:48 | 23.4 | 85 | 20.7 | 1005.1 | 3.2 | N | 0 | 0.2 |
| 29.06.2024 | 20:54 | 23.1 | 86 | 20.6 | 1004.8 | 3.2 | N | 0 | 0.4 |
| 29.06.2024 | 20:57 | 23.0 | 86 | 20.5 | 1004.7 | 3.2 | N | 0 | 0.6 |
| 29.06.2024 | 21:03 | 22.7 | 86 | 20.2 | 1004.8 | 1.4 | NNO | 0 | 0.6 |
| 29.06.2024 | 21:09 | 22.6 | 87 | 20.3 | 1004.9 | 1.4 | N | 0 | 0.6 |
| 29.06.2024 | 21:12 | 22.5 | 87 | 20.2 | 1005.0 | 1.4 | N | 0 | 0.6 |
| 29.06.2024 | 21:18 | 22.4 | 87 | 20.1 | 1004.9 | 1.4 | N | 0 | 0.6 |
| 29.06.2024 | 21:24 | 22.3 | 87 | 20.0 | 1004.5 | 1.4 | N | 0 | 0.6 |
| 29.06.2024 | 21:27 | 22.3 | 88 | 20.2 | 1004.7 | 1.4 | O | 0 | 0.8 |
| 29.06.2024 | 21:33 | 22.3 | 88 | 20.2 | 1004.7 | 1.4 | N | 0 | 1.0 |
| 29.06.2024 | 21:39 | 22.1 | 88 | 20.0 | 1004.7 | 1.4 | N | 0 | 1.0 |
| 29.06.2024 | 21:42 | 21.8 | 88 | 19.7 | 1004.7 | 3.2 | NNW | 0 | 1.2 |
| 29.06.2024 | 21:48 | 21.6 | 88 | 19.5 | 1004.3 | 3.2 | NO | 0 | 1.2 |
| 29.06.2024 | 21:54 | 21.5 | 88 | 19.4 | 1004.0 | 3.2 | N | 0 | 1.4 |
| 29.06.2024 | 21:57 | 21.5 | 88 | 19.4 | 1004.0 | 3.2 | NNO | 0 | 1.6 |
| 29.06.2024 | 22:03 | 21.4 | 88 | 19.3 | 1004.0 | 1.4 | SO | 0 | 1.8 |
| 29.06.2024 | 22:09 | 21.3 | 88 | 19.2 | 1003.5 | 1.4 | NNO | 0 | 2.2 |
| 29.06.2024 | 22:12 | 21.2 | 88 | 19.1 | 1003.8 | 1.4 | SSO | 0 | 2.2 |
| 29.06.2024 | 22:18 | 20.7 | 88 | 18.6 | 1006.1 | 6.5 | SSO | 0 | 2.2 |
| 29.06.2024 | 22:24 | 19.0 | 87 | 16.8 | 1005.8 | 11.2 | SO | 0 | 5.8 |
| 29.06.2024 | 22:27 | 18.7 | 88 | 16.7 | 1005.4 | 11.2 | SO | 0 | 10.6 |
| 29.06.2024 | 22:33 | 18.3 | 88 | 16.3 | 1006.1 | 7.9 | OSO | 0 | 14.8 |
| 29.06.2024 | 22:39 | 18.1 | 88 | 16.1 | 1006.6 | 7.9 | OSO | 0 | 16.8 |
| 29.06.2024 | 22:42 | 17.9 | 88 | 15.9 | 1006.9 | 7.9 | SO | 0 | 17.2 |
| 29.06.2024 | 22:48 | 17.8 | 88 | 15.8 | 1007.4 | 7.9 | SO | 0 | 17.6 |
| 29.06.2024 | 22:54 | 17.8 | 88 | 15.8 | 1008.4 | 7.9 | O | 0 | 18.0 |
| 29.06.2024 | 22:57 | 17.8 | 88 | 15.8 | 1008.5 | 7.9 | SSO | 0 | 18.0 |
| 29.06.2024 | 23:03 | 17.7 | 89 | 15.9 | 1008.2 | 6.5 | W | 0 | 18.4 |
| 29.06.2024 | 23:09 | 17.6 | 88 | 15.6 | 1008.1 | 3.2 | SSO | 0 | 18.6 |
| 29.06.2024 | 23:12 | 17.6 | 88 | 15.6 | 1008.1 | 3.2 | WSW | 0 | 18.8 |
| 29.06.2024 | 23:18 | 17.6 | 88 | 15.6 | 1008.0 | 1.4 | SSO | 0 | 19.2 |
| 29.06.2024 | 23:24 | 17.4 | 88 | 15.4 | 1007.8 | 3.2 | SSO | 0 | 19.2 |
| 29.06.2024 | 23:27 | 17.4 | 88 | 15.4 | 1007.5 | 1.4 | SSO | 0 | 19.2 |
| 29.06.2024 | 23:33 | 17.5 | 88 | 15.5 | 1007.5 | 0.0 | N | 0 | 19.4 |
| 29.06.2024 | 23:39 | 17.4 | 88 | 15.4 | 1007.2 | 1.4 | NNO | 0 | 19.4 |
| 29.06.2024 | 23:42 | 17.4 | 89 | 15.6 | 1007.1 | 1.4 | N | 0 | 19.6 |
| 29.06.2024 | 23:48 | 17.3 | 89 | 15.5 | 1007.4 | 1.4 | SSO | 0 | 19.6 |
| 29.06.2024 | 23:54 | 17.2 | 89 | 15.4 | 1007.1 | 1.4 | SO | 0 | 19.6 |
| 29.06.2024 | 23:57 | 17.2 | 89 | 15.4 | 1007.0 | 1.4 | SO | 0 | 19.8 |